createdAt,value
2022-08-24T00:00:46.358Z,0.90
2022-08-24T00:03:16.939Z,1.40
2022-08-24T00:05:47.299Z,1.33
2022-08-24T00:08:17.096Z,1.33
2022-08-24T00:10:46.772Z,1.40
2022-08-24T00:13:16.676Z,1.17
2022-08-24T00:15:46.294Z,1.20
2022-08-24T00:18:16.821Z,1.37
2022-08-24T00:20:45.951Z,1.05
2022-08-24T00:23:15.292Z,1.40
2022-08-24T00:25:44.725Z,1.02
2022-08-24T00:28:14.398Z,1.00
2022-08-24T00:30:43.709Z,1.33
2022-08-24T00:33:12.869Z,1.10
2022-08-24T00:35:43.322Z,1.33
2022-08-24T00:38:12.510Z,1.17
2022-08-24T00:40:45.672Z,1.30
2022-08-24T00:43:18.639Z,1.23
2022-08-24T00:45:52.784Z,1.35
2022-08-24T00:48:26.333Z,1.48
2022-08-24T00:51:00.577Z,1.20
2022-08-24T00:53:33.401Z,1.25
2022-08-24T00:56:09.996Z,1.23
2022-08-24T00:58:42.997Z,1.35
2022-08-24T01:01:14.537Z,1.23
2022-08-24T01:03:46.317Z,1.38
2022-08-24T01:06:16.978Z,1.15
2022-08-24T01:08:46.234Z,1.25
2022-08-24T01:11:25.616Z,1.65
2022-08-24T01:13:55.687Z,1.30
2022-08-24T01:16:39.223Z,1.00
2022-08-24T01:19:18.118Z,1.30
2022-08-24T01:21:58.951Z,1.20
2022-08-24T01:24:29.752Z,1.20
2022-08-24T01:26:59.625Z,1.05
2022-08-24T01:29:32.007Z,1.20
2022-08-24T01:32:01.233Z,1.30
2022-08-24T01:34:31.059Z,1.40
2022-08-24T01:37:00.371Z,1.07
2022-08-24T01:39:33.748Z,0.90
2022-08-24T01:42:03.653Z,1.57
2022-08-24T01:44:35.788Z,1.40
2022-08-24T01:47:07.464Z,1.25
2022-08-24T01:49:40.267Z,1.60
2022-08-24T01:52:12.699Z,1.30
2022-08-24T01:54:43.712Z,1.30
2022-08-24T01:57:16.290Z,1.20
2022-08-24T01:59:46.829Z,1.50
2022-08-24T02:02:20.049Z,1.23
2022-08-24T02:04:49.282Z,1.80
2022-08-24T02:07:19.292Z,1.50
2022-08-24T02:09:49.908Z,1.37
2022-08-24T02:12:21.005Z,1.63
2022-08-24T02:14:50.122Z,1.20
2022-08-24T02:17:19.274Z,1.60
2022-08-24T02:19:49.014Z,1.23
2022-08-24T02:22:18.128Z,1.27
2022-08-24T02:24:48.836Z,1.53
2022-08-24T02:27:17.973Z,1.53
2022-08-24T02:29:47.308Z,1.40
2022-08-24T02:32:16.575Z,1.38
2022-08-24T02:34:45.697Z,1.40
2022-08-24T02:37:14.798Z,1.40
2022-08-24T02:39:43.913Z,1.50
2022-08-24T02:42:18.501Z,1.50
2022-08-24T02:44:48.156Z,1.60
2022-08-24T02:47:18.893Z,1.60
2022-08-24T02:49:48.834Z,1.40
2022-08-24T02:52:18.022Z,1.63
2022-08-24T02:54:47.130Z,1.67
2022-08-24T02:57:17.785Z,1.50
2022-08-24T02:59:46.973Z,1.80
2022-08-24T03:02:16.200Z,1.77
2022-08-24T03:04:49.508Z,1.30
2022-08-24T03:07:18.948Z,1.57
2022-08-24T03:09:48.833Z,1.80
2022-08-24T03:12:19.325Z,1.77
2022-08-24T03:14:48.540Z,1.50
2022-08-24T03:17:19.271Z,1.40
2022-08-24T03:19:48.625Z,1.97
2022-08-24T03:22:17.781Z,1.60
2022-08-24T03:24:47.758Z,1.70
2022-08-24T03:27:19.354Z,1.73
2022-08-24T03:29:49.953Z,1.70
2022-08-24T03:32:19.422Z,2.37
2022-08-24T03:34:48.648Z,1.70
2022-08-24T03:37:17.725Z,1.73
2022-08-24T03:39:47.774Z,1.47
2022-08-24T03:42:18.410Z,1.97
2022-08-24T03:44:47.476Z,1.63
2022-08-24T03:47:18.859Z,2.03
2022-08-24T03:49:47.916Z,1.77
2022-08-24T03:52:17.264Z,1.70
2022-08-24T03:54:47.322Z,2.03
2022-08-24T03:57:18.032Z,1.77
2022-08-24T03:59:47.524Z,1.70
2022-08-24T04:02:17.045Z,1.90
2022-08-24T04:04:46.208Z,1.93
2022-08-24T04:07:17.160Z,1.80
2022-08-24T04:09:46.245Z,1.63
2022-08-24T04:12:15.691Z,1.70
2022-08-24T04:14:46.425Z,1.80
2022-08-24T04:17:18.905Z,1.70
2022-08-24T04:19:58.524Z,1.80
2022-08-24T04:22:37.467Z,2.00
2022-08-24T04:25:09.579Z,1.90
2022-08-24T04:27:41.021Z,1.60
2022-08-24T04:30:14.143Z,2.07
2022-08-24T04:33:03.997Z,2.00
2022-08-24T04:35:37.539Z,1.77
2022-08-24T04:38:07.696Z,2.37
2022-08-24T04:40:40.315Z,2.30
2022-08-24T04:43:11.596Z,2.07
2022-08-24T04:45:43.593Z,2.70
2022-08-24T04:48:14.333Z,2.30
2022-08-24T04:50:44.921Z,2.30
2022-08-24T04:53:15.111Z,2.40
2022-08-24T04:55:51.097Z,2.30
2022-08-24T04:58:20.877Z,2.13
2022-08-24T05:00:52.159Z,2.10
2022-08-24T05:03:21.465Z,2.20
2022-08-24T05:05:52.903Z,1.80
2022-08-24T05:08:23.289Z,2.30
2022-08-24T05:10:52.336Z,1.90
2022-08-24T05:13:22.803Z,2.20
2022-08-24T05:15:53.222Z,2.00
2022-08-24T05:18:22.612Z,2.00
2022-08-24T05:20:51.727Z,2.07
2022-08-24T05:23:20.931Z,2.40
2022-08-24T05:25:50.762Z,2.03
2022-08-24T05:28:20.320Z,2.70
2022-08-24T05:30:51.125Z,2.03
2022-08-24T05:33:21.840Z,2.33
2022-08-24T05:35:51.055Z,2.13
2022-08-24T05:38:20.088Z,2.33
2022-08-24T05:40:49.260Z,2.37
2022-08-24T05:43:18.678Z,2.20
2022-08-24T05:45:48.927Z,2.33
2022-08-24T05:48:17.973Z,2.67
2022-08-24T05:51:12.190Z,2.05
2022-08-24T05:53:52.105Z,1.98
2022-08-24T05:56:23.252Z,1.58
2022-08-24T05:58:52.371Z,1.58
2022-08-24T06:01:25.658Z,1.75
2022-08-24T06:03:58.149Z,1.35
2022-08-24T06:06:29.055Z,1.48
2022-08-24T06:08:59.829Z,1.67
2022-08-24T06:11:30.900Z,1.50
2022-08-24T06:14:07.629Z,1.75
2022-08-24T06:16:42.107Z,1.63
2022-08-24T06:19:13.900Z,1.40
2022-08-24T06:21:46.698Z,1.10
2022-08-24T06:24:16.918Z,1.42
2022-08-24T06:27:05.362Z,1.58
2022-08-24T06:29:35.869Z,1.48
2022-08-24T06:32:25.659Z,1.63
2022-08-24T06:34:58.799Z,1.50
2022-08-24T06:37:30.213Z,1.42
2022-08-24T06:40:00.311Z,1.60
2022-08-24T06:42:30.397Z,1.50
2022-08-24T06:45:01.808Z,1.30
2022-08-24T06:47:31.010Z,1.70
2022-08-24T06:50:03.592Z,1.30
2022-08-24T06:52:35.461Z,1.35
2022-08-24T06:55:05.929Z,1.45
2022-08-24T06:57:35.486Z,1.13
2022-08-24T07:00:05.991Z,1.40
2022-08-24T07:02:35.742Z,1.42
2022-08-24T07:05:05.743Z,1.08
2022-08-24T07:07:59.839Z,1.00
2022-08-24T07:10:30.572Z,1.65
2022-08-24T07:13:00.389Z,1.00
2022-08-24T07:15:29.706Z,1.10
2022-08-24T07:18:16.418Z,1.17
2022-08-24T07:20:50.876Z,1.20
2022-08-24T07:23:41.170Z,1.15
2022-08-24T07:26:20.792Z,1.17
2022-08-24T07:28:52.880Z,1.02
2022-08-24T07:31:22.612Z,0.90
2022-08-24T07:34:15.286Z,1.10
2022-08-24T07:36:45.176Z,1.20
2022-08-24T07:39:16.320Z,1.25
2022-08-24T07:44:35.987Z,1.08
2022-08-24T07:47:27.185Z,0.90
2022-08-24T07:49:55.142Z,1.00
2022-08-24T07:52:24.331Z,1.50
2022-08-24T07:54:54.918Z,1.10
2022-08-24T07:57:24.144Z,1.20
2022-08-24T07:59:53.252Z,1.63
2022-08-24T08:02:22.463Z,1.45
2022-08-24T08:04:57.057Z,1.30
2022-08-24T08:07:27.361Z,1.35
2022-08-24T08:09:57.804Z,1.15
2022-08-24T08:12:26.876Z,0.98
2022-08-24T08:14:58.554Z,1.42
2022-08-24T08:17:27.906Z,1.00
2022-08-24T08:19:57.265Z,1.00
2022-08-24T08:22:44.388Z,1.13
2022-08-24T08:25:48.370Z,1.13
2022-08-24T08:28:33.221Z,1.10
2022-08-24T08:31:06.460Z,1.63
2022-08-24T08:33:36.965Z,1.33
2022-08-24T08:36:09.952Z,1.20
2022-08-24T08:38:44.041Z,1.15
2022-08-24T08:41:45.141Z,1.48
2022-08-24T08:44:34.915Z,1.08
2022-08-24T08:47:17.735Z,1.50
2022-08-24T08:50:04.096Z,1.27
2022-08-24T08:53:04.267Z,1.20
2022-08-24T08:55:41.054Z,1.20
2022-08-24T08:58:38.779Z,1.02
2022-08-24T09:01:20.581Z,1.38
2022-08-24T09:04:17.671Z,1.30
2022-08-24T09:07:23.031Z,1.27
2022-08-24T09:10:23.601Z,1.30
2022-08-24T09:13:06.019Z,1.42
2022-08-24T09:15:58.853Z,1.35
2022-08-24T09:18:45.000Z,1.13
2022-08-24T09:21:52.338Z,1.40
2022-08-24T09:24:36.963Z,1.30
2022-08-24T09:27:23.428Z,1.25
2022-08-24T09:30:04.398Z,1.52
2022-08-24T09:32:49.796Z,1.08
2022-08-24T09:35:27.175Z,1.60
2022-08-24T09:38:01.202Z,1.20
2022-08-24T09:40:59.415Z,1.25
2022-08-24T09:44:11.709Z,1.13
2022-08-24T09:47:21.079Z,1.27
2022-08-24T09:50:27.611Z,1.50
2022-08-24T09:53:31.952Z,1.30
2022-08-24T09:56:20.665Z,1.20
2022-08-24T09:59:03.639Z,1.00
2022-08-24T10:01:41.733Z,1.10
2022-08-24T10:04:22.035Z,1.33
2022-08-24T10:07:03.697Z,1.20
2022-08-24T10:10:06.419Z,1.38
2022-08-24T10:12:50.044Z,1.10
2022-08-24T10:15:29.681Z,1.00
2022-08-24T10:18:17.983Z,1.30
2022-08-24T10:21:03.757Z,1.20
2022-08-24T10:23:51.657Z,1.13
2022-08-24T10:26:32.679Z,1.10
2022-08-24T10:29:20.543Z,1.25
2022-08-24T10:32:03.851Z,1.17
2022-08-24T10:34:47.392Z,1.05
2022-08-24T10:37:41.732Z,1.10
2022-08-24T10:40:31.765Z,1.00
2022-08-24T10:43:37.225Z,1.00
2022-08-24T10:46:50.401Z,1.00
2022-08-24T10:49:50.636Z,1.20
2022-08-24T10:53:02.357Z,0.80
2022-08-24T10:55:35.520Z,1.13
2022-08-24T10:58:35.120Z,1.38
2022-08-24T11:01:27.529Z,1.10
2022-08-24T11:04:00.970Z,1.10
2022-08-24T11:06:33.778Z,1.00
2022-08-24T11:09:07.459Z,0.90
2022-08-24T11:11:40.728Z,1.15
2022-08-24T11:14:25.215Z,1.05
2022-08-24T11:16:57.717Z,1.33
2022-08-24T11:19:34.070Z,0.93
2022-08-24T11:22:06.075Z,1.15
2022-08-24T11:24:45.186Z,0.82
2022-08-24T11:27:30.453Z,1.10
2022-08-24T11:30:03.502Z,0.80
2022-08-24T11:32:38.988Z,1.10
2022-08-24T11:35:16.791Z,1.10
2022-08-24T11:37:46.402Z,1.25
2022-08-24T11:40:18.012Z,0.95
2022-08-24T11:43:15.993Z,1.20
2022-08-24T11:45:54.440Z,1.00
2022-08-24T11:48:37.369Z,1.10
2022-08-24T11:51:13.499Z,1.00
2022-08-24T11:53:51.819Z,0.90
2022-08-24T11:56:26.947Z,1.00
2022-08-24T11:59:06.119Z,1.10
2022-08-24T12:01:44.866Z,0.95
2022-08-24T12:04:26.997Z,1.00
2022-08-24T12:07:04.264Z,0.80
2022-08-24T12:09:58.428Z,0.90
2022-08-24T12:12:36.249Z,1.15
2022-08-24T12:15:12.510Z,0.70
2022-08-24T12:17:46.942Z,0.93
2022-08-24T12:20:25.738Z,1.00
2022-08-24T12:23:00.256Z,1.00
2022-08-24T12:25:50.432Z,0.90
2022-08-24T12:28:26.548Z,0.70
2022-08-24T12:31:00.677Z,0.70
2022-08-24T12:33:37.452Z,0.80
2022-08-24T12:36:18.633Z,0.90
2022-08-24T12:38:53.080Z,0.80
2022-08-24T12:41:28.029Z,0.70
2022-08-24T12:44:03.262Z,0.90
2022-08-24T12:46:34.050Z,1.65
2022-08-24T12:49:11.930Z,0.82
2022-08-24T12:51:57.510Z,0.80
2022-08-24T12:54:42.817Z,1.00
2022-08-24T12:57:38.795Z,0.90
2022-08-24T13:00:14.312Z,0.80
2022-08-24T13:02:47.969Z,0.93
2022-08-24T13:05:20.830Z,0.70
2022-08-24T13:07:53.357Z,0.70
2022-08-24T13:10:45.179Z,0.80
2022-08-24T13:13:41.483Z,0.80
2022-08-24T13:16:13.658Z,1.05
2022-08-24T13:19:16.513Z,0.73
2022-08-24T13:21:54.729Z,1.10
2022-08-24T13:24:59.881Z,0.90
2022-08-24T13:28:11.281Z,0.88
2022-08-24T13:31:11.175Z,0.80
2022-08-24T13:33:43.981Z,1.02
2022-08-24T13:36:44.973Z,0.85
2022-08-24T13:39:35.643Z,1.20
2022-08-24T13:42:12.750Z,0.95
2022-08-24T13:45:07.557Z,0.90
2022-08-24T13:47:59.033Z,1.13
2022-08-24T13:50:46.644Z,0.90
2022-08-24T13:53:52.910Z,1.08
2022-08-24T13:56:48.013Z,1.10
2022-08-24T13:59:23.526Z,0.90
2022-08-24T14:02:10.723Z,0.98
2022-08-24T14:04:56.010Z,0.98
2022-08-24T14:07:30.395Z,1.08
2022-08-24T14:10:15.049Z,1.10
2022-08-24T14:12:56.283Z,1.05
2022-08-24T14:15:45.659Z,0.93
2022-08-24T14:18:22.683Z,0.90
2022-08-24T14:21:09.851Z,1.67
2022-08-24T14:23:52.953Z,1.15
2022-08-24T14:27:08.173Z,1.15
2022-08-24T14:29:49.334Z,1.10
2022-08-24T14:32:40.651Z,0.75
2022-08-24T14:35:42.929Z,1.17
2022-08-24T14:38:33.234Z,1.00
2022-08-24T14:41:19.702Z,1.27
2022-08-24T14:44:07.059Z,1.38
2022-08-24T14:46:49.523Z,2.17
2022-08-24T14:49:28.535Z,0.95
2022-08-24T14:52:08.222Z,1.30
2022-08-24T14:54:56.742Z,1.23
2022-08-24T14:57:43.910Z,1.13
2022-08-24T15:00:16.373Z,1.10
2022-08-24T15:03:12.995Z,1.05
2022-08-24T15:05:59.140Z,1.20
2022-08-24T15:08:43.045Z,0.77
2022-08-24T15:11:15.625Z,1.00
2022-08-24T15:13:49.655Z,1.20
2022-08-24T15:16:23.058Z,1.20
2022-08-24T15:19:04.457Z,0.80
2022-08-24T15:21:44.653Z,0.90
2022-08-24T15:24:21.433Z,1.70
2022-08-24T15:27:00.769Z,2.00
2022-08-24T15:29:33.797Z,1.10
2022-08-24T15:32:07.963Z,1.10
2022-08-24T15:34:45.452Z,1.13
2022-08-24T15:37:16.929Z,0.90
2022-08-24T15:39:45.911Z,1.20
2022-08-24T15:42:16.728Z,1.10
2022-08-24T15:44:49.954Z,1.35
2022-08-24T15:47:29.442Z,0.88
2022-08-24T15:50:02.586Z,1.10
2022-08-24T15:52:48.007Z,1.08
2022-08-24T15:55:33.429Z,0.90
2022-08-24T15:58:26.869Z,1.05
2022-08-24T16:01:19.378Z,1.17
2022-08-24T16:03:54.484Z,1.05
2022-08-24T16:06:38.222Z,0.85
2022-08-24T16:09:11.364Z,1.15
2022-08-24T16:11:44.121Z,1.05
2022-08-24T16:14:16.360Z,4.40
2022-08-24T16:16:47.255Z,1.40
2022-08-24T16:19:25.735Z,0.90
2022-08-24T16:22:01.047Z,1.10
2022-08-24T16:24:33.578Z,1.00
2022-08-24T16:27:07.659Z,0.90
2022-08-24T16:30:00.747Z,0.90
2022-08-24T16:32:53.181Z,1.00
2022-08-24T16:35:24.447Z,1.08
2022-08-24T16:37:55.691Z,1.23
2022-08-24T16:40:25.788Z,1.40
2022-08-24T16:42:56.408Z,0.88
2022-08-24T16:45:25.749Z,1.00
2022-08-24T16:47:54.778Z,1.10
2022-08-24T16:50:27.421Z,1.20
2022-08-24T16:52:58.173Z,1.35
2022-08-24T16:55:28.362Z,1.20
2022-08-24T16:57:57.504Z,0.98
2022-08-24T17:00:26.643Z,1.23
2022-08-24T17:02:55.681Z,0.90
2022-08-24T17:05:25.212Z,1.20
2022-08-24T17:07:54.393Z,0.98
2022-08-24T17:10:26.140Z,1.02
2022-08-24T17:12:55.389Z,1.23
2022-08-24T17:15:24.890Z,1.02
2022-08-24T17:17:59.951Z,1.20
2022-08-24T17:20:29.384Z,1.45
2022-08-24T17:22:59.184Z,1.30
2022-08-24T17:25:30.999Z,1.45
2022-08-24T17:28:01.183Z,1.27
2022-08-24T17:30:30.978Z,1.23
2022-08-24T17:33:01.286Z,1.17
2022-08-24T17:35:30.853Z,1.42
2022-08-24T17:38:00.966Z,1.65
2022-08-24T17:40:33.136Z,1.50
2022-08-24T17:43:02.557Z,1.17
2022-08-24T17:45:31.686Z,1.35
2022-08-24T17:48:00.753Z,1.25
2022-08-24T17:50:29.817Z,1.40
2022-08-24T17:53:00.576Z,0.95
2022-08-24T17:55:31.433Z,1.77
2022-08-24T17:58:02.028Z,1.60
2022-08-24T18:00:31.122Z,1.38
2022-08-24T18:03:00.663Z,1.48
2022-08-24T18:05:31.653Z,1.55
2022-08-24T18:08:02.430Z,1.10
2022-08-24T18:10:33.815Z,1.17
2022-08-24T18:13:04.333Z,1.50
2022-08-24T18:15:38.937Z,1.38
2022-08-24T18:18:09.980Z,1.52
2022-08-24T18:20:41.671Z,1.27
2022-08-24T18:23:12.569Z,1.40
2022-08-24T18:25:48.515Z,1.38
2022-08-24T18:28:21.289Z,1.40
2022-08-24T18:30:50.520Z,1.23
2022-08-24T18:33:19.538Z,1.08
2022-08-24T18:35:48.615Z,1.30
2022-08-24T18:38:18.166Z,1.15
2022-08-24T18:40:52.963Z,1.75
2022-08-24T18:43:24.817Z,1.20
2022-08-24T18:45:54.813Z,1.90
2022-08-24T18:48:24.142Z,1.45
2022-08-24T18:50:54.337Z,1.40
2022-08-24T18:53:27.271Z,1.65
2022-08-24T18:56:00.627Z,1.40
2022-08-24T18:58:33.825Z,1.30
2022-08-24T19:01:04.767Z,1.67
2022-08-24T19:03:35.081Z,1.40
2022-08-24T19:06:04.200Z,1.33
2022-08-24T19:08:33.394Z,1.52
2022-08-24T19:11:03.923Z,1.35
2022-08-24T19:13:33.820Z,1.48
2022-08-24T19:16:02.953Z,1.23
2022-08-24T19:18:32.335Z,1.38
2022-08-24T19:21:01.794Z,1.50
2022-08-24T19:23:36.502Z,1.60
2022-08-24T19:26:07.016Z,1.50
2022-08-24T19:28:36.879Z,2.47
2022-08-24T19:31:11.686Z,1.40
2022-08-24T19:33:46.717Z,1.42
2022-08-24T19:36:19.618Z,1.40
2022-08-24T19:38:48.869Z,1.58
2022-08-24T19:41:19.928Z,1.83
2022-08-24T19:44:10.085Z,1.73
2022-08-24T19:46:39.634Z,1.30
2022-08-24T19:49:09.235Z,1.25
2022-08-24T19:51:38.918Z,1.70
2022-08-24T19:54:08.703Z,1.73
2022-08-24T19:56:39.090Z,1.42
2022-08-24T19:59:19.074Z,1.92
2022-08-24T20:01:48.303Z,1.88
2022-08-24T20:04:17.446Z,1.58
2022-08-24T20:06:47.928Z,1.58
2022-08-24T20:09:20.554Z,2.00
2022-08-24T20:11:53.382Z,2.10
2022-08-24T20:14:22.619Z,1.55
2022-08-24T20:16:51.917Z,1.88
2022-08-24T20:19:21.014Z,1.70
2022-08-24T20:21:50.027Z,1.58
2022-08-24T20:24:19.229Z,2.10
2022-08-24T20:26:48.395Z,1.83
2022-08-24T20:29:19.096Z,2.10
2022-08-24T20:31:52.328Z,1.83
2022-08-24T20:34:21.539Z,2.28
2022-08-24T20:36:51.723Z,1.80
2022-08-24T20:39:24.838Z,1.73
2022-08-24T20:41:54.009Z,2.10
2022-08-24T20:44:25.191Z,1.90
2022-08-24T20:46:54.955Z,1.73
2022-08-24T20:49:27.598Z,2.00
2022-08-24T20:51:56.633Z,2.03
2022-08-24T20:54:25.726Z,2.30
2022-08-24T20:56:54.896Z,1.70
2022-08-24T20:59:25.757Z,1.90
2022-08-24T21:01:55.907Z,1.77
2022-08-24T21:04:25.117Z,2.15
2022-08-24T21:06:54.801Z,1.90
2022-08-24T21:09:24.217Z,2.00
2022-08-24T21:11:53.894Z,2.40
2022-08-24T21:14:24.319Z,2.03
2022-08-24T21:16:54.202Z,1.90
2022-08-24T21:19:23.448Z,2.10
2022-08-24T21:21:52.604Z,2.20
2022-08-24T21:24:21.655Z,2.10
2022-08-24T21:26:50.739Z,2.33
2022-08-24T21:29:20.430Z,2.10
2022-08-24T21:32:08.377Z,2.17
2022-08-24T21:34:43.372Z,2.00
2022-08-24T21:37:16.002Z,2.50
2022-08-24T21:39:48.361Z,2.13
2022-08-24T21:42:19.929Z,2.70
2022-08-24T21:44:49.425Z,2.15
2022-08-24T21:47:19.863Z,2.38
2022-08-24T21:49:48.844Z,2.50
2022-08-24T21:52:17.843Z,2.40
2022-08-24T21:54:47.051Z,2.42
2022-08-24T21:57:16.331Z,2.63
2022-08-24T21:59:45.405Z,2.28
2022-08-24T22:02:20.530Z,2.30
2022-08-24T22:04:54.562Z,2.45
2022-08-24T22:07:25.644Z,2.17
2022-08-24T22:09:55.123Z,2.53
2022-08-24T22:12:24.265Z,2.30
2022-08-24T22:14:53.420Z,2.28
2022-08-24T22:17:23.908Z,2.40
2022-08-24T22:19:52.913Z,2.42
2022-08-24T22:22:21.984Z,2.60
2022-08-24T22:24:50.979Z,2.40
2022-08-24T22:27:20.386Z,2.67
2022-08-24T22:29:54.100Z,2.58
2022-08-24T22:32:24.731Z,2.08
2022-08-24T22:34:53.902Z,2.30
2022-08-24T22:37:23.008Z,2.83
2022-08-24T22:39:52.145Z,2.47
2022-08-24T22:42:21.258Z,2.40
2022-08-24T22:44:50.366Z,2.75
2022-08-24T22:47:19.732Z,3.15
2022-08-24T22:49:50.208Z,2.42
2022-08-24T22:52:19.265Z,2.40
2022-08-24T22:54:48.603Z,2.45
2022-08-24T22:57:19.875Z,2.60
2022-08-24T22:59:49.083Z,2.53
2022-08-24T23:02:19.719Z,2.60
2022-08-24T23:04:53.116Z,2.38
2022-08-24T23:07:22.570Z,2.80
2022-08-24T23:09:52.103Z,2.78
2022-08-24T23:12:24.208Z,2.80
2022-08-24T23:14:54.356Z,2.75
2022-08-24T23:17:24.388Z,2.95
2022-08-24T23:20:06.328Z,3.03
2022-08-24T23:22:37.671Z,3.13
2022-08-24T23:25:08.326Z,2.40
2022-08-24T23:27:38.522Z,2.70
2022-08-24T23:30:10.585Z,2.60
2022-08-24T23:32:40.300Z,2.85
2022-08-24T23:35:11.271Z,2.50
2022-08-24T23:37:40.718Z,3.08
2022-08-24T23:40:11.015Z,2.72
2022-08-24T23:42:40.100Z,2.78
2022-08-24T23:45:12.186Z,2.78
2022-08-24T23:47:41.684Z,3.28
2022-08-24T23:50:12.555Z,2.97
2022-08-24T23:52:42.626Z,3.03
2022-08-24T23:55:20.201Z,2.70
2022-08-24T23:57:52.333Z,2.80
